»·PEaware :: WAT3512 KTRM-KPRC

WAT3512 :: KTRM-KPRC

FLIGHT INFORMATION

Flight Status: Arrived
Operator:
Walker Air Transport
More flights by this operator :: More flights under this callsign
Pilot: Richard A. (43314)
Aircraft: BEECH AIRCRAFT SUPER KING AIR 350
(B350)
More flights by this aircraft type
Origin: KTRM Desert Resorts Regl
United States
Destination: KPRC Love
United States
More flights between these airports :: More routes between these airports
Route: MECCA1 TNP V208 EED V12 DRK
File this flight plan on PilotEdge
Remarks: CALLSIGN = WALKER / / VISIT US AT HTTPS / / WALKERAIR.US
Altitude:
(Current/Filed)
21,000ft
Speed:
(Current/Filed)
310kts
Departed: 17-May-23 02:49 PM
Arrived: 17-May-23 03:56 PM
Distance/Time
Traveled:
195nm/1:07
Distance/Time
To Go:
Arrived

Flight Plot

Page will automatically refresh every two minutes.

Flight plan parsing failed; only flown route is shown


Map Options




Map Legend


Flown Route
Filed Route
Departure Airport
Arrival Airport
Navaid (VOR, NDB)
Fix

Horizontal Profiles

Position Reports

Time Latitude Longitude Heading Altitude Ground
Speed
17-May-23 14:22 33.635043 -116.160915 270 -110ft 0kts
17-May-23 14:23 33.635043 -116.160915 270 -110ft 0kts
17-May-23 14:24 33.635043 -116.160915 270 -110ft 0kts
17-May-23 14:25 33.635043 -116.160915 270 -110ft 0kts
17-May-23 14:26 33.635043 -116.160915 270 -110ft 0kts
17-May-23 14:27 33.635043 -116.160915 270 -110ft 0kts
17-May-23 14:28 33.635043 -116.160915 270 -110ft 0kts
17-May-23 14:29 33.635043 -116.160915 270 -110ft 0kts
17-May-23 14:30 33.635043 -116.160915 270 -110ft 0kts
17-May-23 14:31 33.635043 -116.160915 270 -110ft 0kts
17-May-23 14:32 33.635043 -116.160915 270 -110ft 0kts
17-May-23 14:33 33.635043 -116.160915 270 -110ft 0kts
17-May-23 14:34 33.635043 -116.160916 270 -110ft 0kts
17-May-23 14:35 33.635043 -116.160915 270 -110ft 0kts
17-May-23 14:35 33.635043 -116.160915 270 -110ft 0kts
17-May-23 14:36 33.635043 -116.160915 270 -110ft 0kts
17-May-23 14:37 33.635043 -116.160915 270 -110ft 0kts
17-May-23 14:39 33.635043 -116.160915 270 -110ft 0kts
17-May-23 14:40 33.634670 -116.161078 181 -110ft 2kts
17-May-23 14:40 33.634101 -116.160712 96 -110ft 4kts
17-May-23 14:41 33.634142 -116.158708 92 -110ft 6kts
17-May-23 14:42 33.635489 -116.157718 359 -110ft 5kts
17-May-23 14:43 33.637184 -116.157733 359 -110ft 6kts
17-May-23 14:44 33.638719 -116.157735 358 -110ft 1kts
17-May-23 14:45 33.638762 -116.157736 0 -110ft 0kts
17-May-23 14:46 33.638762 -116.157736 0 -110ft 0kts
17-May-23 14:47 33.639024 -116.157200 88 -110ft 4kts
17-May-23 14:48 33.637140 -116.156366 179 -110ft 56kts
17-May-23 14:49 33.603989 -116.149828 138 1021ft 143kts
17-May-23 14:50 33.572544 -116.120752 147 2836ft 148kts
17-May-23 14:51 33.537590 -116.095226 146 4580ft 151kts
17-May-23 14:52 33.556079 -116.069250 323 6204ft 179kts
17-May-23 14:53 33.589576 -116.113963 314 7590ft 188kts
17-May-23 14:54 33.630418 -116.152645 6 8779ft 191kts
17-May-23 14:55 33.675512 -116.122173 36 9928ft 189kts
17-May-23 14:56 33.719493 -116.086945 36 11028ft 192kts
17-May-23 14:57 33.763962 -116.051237 36 12063ft 194kts
17-May-23 14:58 33.809277 -116.014802 36 13030ft 198kts
17-May-23 14:59 33.855196 -115.977812 36 13939ft 202kts
17-May-23 15:00 33.897822 -115.943432 37 14726ft 205kts
17-May-23 15:01 33.945098 -115.905273 37 15703ft 200kts
17-May-23 15:02 33.990360 -115.868682 37 16864ft 194kts
17-May-23 15:03 34.035866 -115.831843 37 17920ft 200kts
17-May-23 15:04 34.082434 -115.794100 37 18957ft 204kts
17-May-23 15:05 34.123049 -115.748263 62 19791ft 201kts
17-May-23 15:06 34.153062 -115.690325 63 20587ft 205kts
17-May-23 15:07 34.183758 -115.630412 63 20982ft 220kts
17-May-23 15:08 34.216817 -115.565763 63 20975ft 232kts
17-May-23 15:09 34.251359 -115.498084 62 20974ft 241kts
17-May-23 15:10 34.287058 -115.428003 62 20971ft 249kts
17-May-23 15:11 34.323864 -115.355594 62 20930ft 255kts
17-May-23 15:12 34.361315 -115.281772 63 20888ft 260kts
17-May-23 15:13 34.399138 -115.207062 63 20845ft 262kts
17-May-23 15:14 34.437394 -115.131348 63 20828ft 265kts
17-May-23 15:15 34.476654 -115.053452 63 20826ft 275kts
17-May-23 15:16 34.516887 -114.973464 63 20826ft 281kts
17-May-23 15:17 34.557771 -114.891982 63 20827ft 285kts
17-May-23 15:18 34.599119 -114.809399 63 20827ft 288kts
17-May-23 15:19 34.640711 -114.726129 63 20827ft 290kts
17-May-23 15:20 34.682444 -114.642383 63 20840ft 291kts
17-May-23 15:21 34.724365 -114.558048 63 20828ft 292kts
17-May-23 15:22 34.763730 -114.472372 86 20808ft 282kts
17-May-23 15:23 34.763640 -114.379265 97 20892ft 274kts
17-May-23 15:24 34.761425 -114.286762 98 20959ft 274kts
17-May-23 15:25 34.759051 -114.193725 98 21001ft 276kts
17-May-23 15:26 34.756589 -114.100166 98 20999ft 278kts
17-May-23 15:27 34.754036 -114.006054 98 20997ft 279kts
17-May-23 15:28 34.751411 -113.911805 98 20992ft 280kts
17-May-23 15:29 34.748710 -113.817324 98 20986ft 280kts
17-May-23 15:30 34.745937 -113.722877 98 20983ft 279kts
17-May-23 15:31 34.743037 -113.627101 97 20630ft 290kts
17-May-23 15:32 34.739964 -113.527688 97 20163ft 296kts
17-May-23 15:33 34.736763 -113.427057 96 19335ft 299kts
17-May-23 15:34 34.733535 -113.327831 97 18229ft 286kts
17-May-23 15:35 34.730371 -113.233195 96 17129ft 275kts
17-May-23 15:36 34.727290 -113.142869 96 16004ft 259kts
17-May-23 15:37 34.724318 -113.057751 95 14904ft 249kts
17-May-23 15:38 34.721350 -112.974287 95 13983ft 240kts
17-May-23 15:39 34.718553 -112.897254 94 13601ft 224kts
17-May-23 15:40 34.715767 -112.821944 94 13000ft 222kts
17-May-23 15:41 34.736061 -112.755356 50 12417ft 222kts
17-May-23 15:42 34.777925 -112.695521 50 11408ft 242kts
17-May-23 15:43 34.821669 -112.633257 50 9913ft 239kts
17-May-23 15:44 34.864491 -112.573051 50 8415ft 233kts
17-May-23 15:45 34.907191 -112.517984 23 7773ft 215kts
17-May-23 15:46 34.934998 -112.555500 229 7865ft 177kts
17-May-23 15:47 34.890072 -112.554018 178 7497ft 169kts
17-May-23 15:48 34.845206 -112.558123 183 7493ft 156kts
17-May-23 15:49 34.801658 -112.563610 184 7502ft 160kts
17-May-23 15:50 34.761161 -112.552624 137 7604ft 161kts
17-May-23 15:51 34.729591 -112.516343 137 7030ft 142kts
17-May-23 15:52 34.702265 -112.484890 137 6360ft 129kts
17-May-23 15:53 34.676937 -112.455780 137 5713ft 129kts
17-May-23 15:54 34.651690 -112.426732 135 5008ft 103kts
17-May-23 15:55 34.644258 -112.418239 135 5039ft 4kts
17-May-23 15:56 34.643884 -112.418733 317 5040ft 8kts
17-May-23 15:57 34.645837 -112.420980 317 5031ft 8kts
17-May-23 15:58 34.648354 -112.424200 252 5018ft 8kts
17-May-23 15:59 34.646921 -112.424730 105 5024ft 3kts
17-May-23 16:00 34.646810 -112.424364 128 5024ft 0kts
17-May-23 16:01 34.646810 -112.424364 128 5024ft 0kts
17-May-23 16:02 34.646810 -112.424364 128 5024ft 0kts
17-May-23 16:03 34.646810 -112.424364 128 5024ft 0kts

Navigation Log

Ident Type
Flight plan parsing failed, navigation log unavailable